X  ChiudiMetar Aviation Dati Meteorologici     LIPZ Venice Marco Polo

Temperatura

17°C Temperatura

16°C Punto di rugiada

94% Umidità



Vento

 8 KM/H

 5 MPH

 2 M/S

 4 KTS



60°
Est Nord
Est
Condizioni attuali

Chiaro Chiaro
Pressione atmosferica 1015.92 (hPa) - 30 (in)
Visibilità 6.2 (mi) - 10 (km)
Aeroporto
Codice Aeroporto LIPZ

Posizione Venice Marco Polo 26 (km)

Metar:
LIPZ 191850Z 06004KT CAVOK 17/16 Q1016 NOSIG

Ore: 19-10-2019 20:50